Time;durP1;ratioP1;P1;durP2;ratioP2;P2;SDS_P1;SDS_P2;PMS_P1;PMS_P2;Temp;Humidity;BMP_temperature;BMP_pressure;BME280_temperature;BME280_humidity;BME280_pressure;Samples;Min_cycle;Max_cycle;Signal;HPM_P1;HPM_P2
2021/10/19 00:01:01;;;;;;;;;;;9.60;99.90;;;;;;5045120;28;20037;-62
2021/10/19 00:03:28;;;;;;;24.00;13.85;;;9.60;99.90;;;;;;5046457;28;19992;-61
2021/10/19 00:05:53;;;;;;;27.60;15.35;;;9.60;99.90;;;;;;5044808;28;20405;-61
2021/10/19 00:08:19;;;;;;;;;;;9.60;99.90;;;;;;5046439;28;20037;-62
2021/10/19 00:10:45;;;;;;;23.08;13.55;;;9.60;99.90;;;;;;5044526;28;19932;-62
2021/10/19 00:13:10;;;;;;;26.10;14.00;;;9.60;99.90;;;;;;5046089;28;20112;-62
2021/10/19 00:15:36;;;;;;;;;;;9.60;99.90;;;;;;5049768;28;20051;-62
2021/10/19 00:18:02;;;;;;;27.95;14.18;;;9.70;99.90;;;;;;5056410;28;19916;-62
2021/10/19 00:20:28;;;;;;;;;;;9.70;99.90;;;;;;5052602;28;20040;-61
2021/10/19 00:22:53;;;;;;;21.98;12.38;;;9.70;99.90;;;;;;5052134;28;20007;-62
2021/10/19 00:25:19;;;;;;;;;;;9.60;99.90;;;;;;5052833;28;20049;-62
2021/10/19 00:27:45;;;;;;;23.88;12.13;;;9.60;99.90;;;;;;5042628;28;20017;-61
2021/10/19 00:30:12;;;;;;;24.17;13.35;;;9.60;99.90;;;;;;5044755;28;20036;-61
2021/10/19 00:32:39;;;;;;;21.73;11.30;;;9.50;99.90;;;;;;5051976;28;20045;-61
2021/10/19 00:35:06;;;;;;;18.67;10.38;;;9.60;99.90;;;;;;5051981;28;20045;-62
2021/10/19 00:37:32;;;;;;;19.63;11.00;;;9.50;99.90;;;;;;5049485;28;20041;-61
2021/10/19 00:39:57;;;;;;;;;;;9.60;99.90;;;;;;5048475;28;20029;-62
2021/10/19 00:42:23;;;;;;;21.35;12.13;;;9.60;99.90;;;;;;5042157;28;20573;-62
2021/10/19 00:44:49;;;;;;;;;;;9.60;99.90;;;;;;5045032;28;20047;-61
2021/10/19 00:47:19;;;;;;;17.30;8.75;;;9.60;99.90;;;;;;5049398;28;19925;-60
2021/10/19 00:49:46;;;;;;;17.55;9.80;;;9.60;99.90;;;;;;5050662;28;20045;-61
2021/10/19 00:52:12;;;;;;;16.95;8.88;;;9.60;99.90;;;;;;5046291;28;20037;-61
2021/10/19 00:54:38;;;;;;;19.05;10.10;;;9.60;99.90;;;;;;5042497;28;20077;-61
2021/10/19 00:57:04;;;;;;;;;;;9.60;99.90;;;;;;5050230;28;20083;-61
2021/10/19 00:59:31;;;;;;;14.20;8.60;;;9.60;99.90;;;;;;5029730;28;20273;-62
2021/10/19 01:01:56;;;;;;;13.00;8.02;;;9.60;99.90;;;;;;5030348;28;20041;-61
2021/10/19 01:04:22;;;;;;;;;;;9.70;99.90;;;;;;5032253;28;20120;-61
2021/10/19 01:06:48;;;;;;;16.95;8.05;;;9.70;99.90;;;;;;5029919;28;20020;-61
2021/10/19 01:09:13;;;;;;;;;;;9.70;99.90;;;;;;5028206;28;20053;-61
2021/10/19 01:11:39;;;;;;;14.52;9.00;;;9.80;99.90;;;;;;5028908;28;21101;-61
2021/10/19 01:14:05;;;;;;;;;;;9.90;99.90;;;;;;5032657;28;20049;-62
2021/10/19 01:16:30;;;;;;;15.40;8.00;;;9.90;99.90;;;;;;5029078;28;19917;-61
2021/10/19 01:18:57;;;;;;;;;;;9.90;99.90;;;;;;5029649;28;20045;-62
2021/10/19 01:21:23;;;;;;;12.10;7.20;;;10.00;99.90;;;;;;5030474;28;19928;-62
2021/10/19 01:23:48;;;;;;;;;;;9.90;99.90;;;;;;5031692;28;20038;-61
2021/10/19 01:26:15;;;;;;;17.02;8.18;;;10.00;99.90;;;;;;5028736;28;19935;-61
2021/10/19 01:28:44;;;;;;;16.80;9.23;;;10.00;99.90;;;;;;5040516;28;20033;-62
2021/10/19 01:31:12;;;;;;;10.60;7.35;;;10.00;99.90;;;;;;5042633;28;20114;-61
2021/10/19 01:33:38;;;;;;;12.85;7.00;;;10.10;99.90;;;;;;5031063;28;20176;-61
2021/10/19 01:36:05;;;;;;;13.68;8.10;;;10.10;99.90;;;;;;5030220;28;20635;-62
2021/10/19 01:38:33;;;;;;;11.40;6.55;;;10.00;99.90;;;;;;5030899;28;20417;-61
2021/10/19 01:41:00;;;;;;;9.10;5.93;;;10.10;99.90;;;;;;5029838;28;20064;-62
2021/10/19 01:43:27;;;;;;;9.90;7.07;;;10.20;99.90;;;;;;5031558;28;20188;-62
2021/10/19 01:45:58;;;;;;;15.02;8.05;;;10.20;99.90;;;;;;5029225;28;20046;-62
2021/10/19 01:48:25;;;;;;;13.88;8.57;;;10.20;99.90;;;;;;5027926;28;20041;-61
2021/10/19 01:50:51;;;;;;;16.95;9.65;;;10.20;99.90;;;;;;5029196;28;20045;-61
2021/10/19 01:53:16;;;;;;;15.43;8.00;;;10.30;99.90;;;;;;5028888;28;20045;-62
2021/10/19 01:55:42;;;;;;;;;;;10.30;99.90;;;;;;5031118;28;20048;-61
2021/10/19 01:58:10;;;;;;;13.32;8.32;;;10.40;99.90;;;;;;5034379;28;20273;-62
2021/10/19 02:00:37;;;;;;;14.48;9.57;;;10.40;99.90;;;;;;5025392;28;20060;-62
2021/10/19 02:03:07;;;;;;;17.75;8.63;;;10.50;99.90;;;;;;5029675;28;20122;-63
2021/10/19 02:05:33;;;;;;;14.10;8.55;;;10.60;99.90;;;;;;5029684;28;20049;-61
2021/10/19 02:08:02;;;;;;;16.48;9.05;;;10.70;99.90;;;;;;5027725;28;20041;-62
2021/10/19 02:10:29;;;;;;;13.55;7.15;;;10.70;99.90;;;;;;5026814;28;20041;-62
2021/10/19 02:12:54;;;;;;;18.90;10.18;;;10.70;99.90;;;;;;5027560;28;20132;-62
2021/10/19 02:15:24;;;;;;;;;;;10.70;99.90;;;;;;5025684;28;20037;-62
2021/10/19 02:17:50;;;;;;;17.10;10.38;;;10.70;99.90;;;;;;5027218;28;19970;-61
2021/10/19 02:20:15;;;;;;;;;;;10.90;99.90;;;;;;5030278;28;20470;-62
2021/10/19 02:22:41;;;;;;;16.52;9.45;;;10.90;99.90;;;;;;5030224;28;19921;-62
2021/10/19 02:25:07;;;;;;;;;;;10.90;99.90;;;;;;5031132;28;20044;-62
2021/10/19 02:27:32;;;;;;;22.33;10.25;;;10.80;99.90;;;;;;5031395;28;20015;-62
2021/10/19 02:29:58;;;;;;;;;;;10.80;99.90;;;;;;5049745;28;20029;-62
2021/10/19 02:32:23;;;;;;;12.73;7.85;;;10.80;99.90;;;;;;5032737;28;19917;-62
2021/10/19 02:34:49;;;;;;;;;;;10.80;99.90;;;;;;5030394;28;20108;-62
2021/10/19 02:37:14;;;;;;;18.55;10.38;;;10.70;99.90;;;;;;5025882;28;19971;-61
2021/10/19 02:39:40;;;;;;;;;;;10.60;99.90;;;;;;5025962;28;20033;-62
2021/10/19 02:42:06;;;;;;;18.15;9.93;;;10.50;99.90;;;;;;5026683;28;19917;-62
2021/10/19 02:44:31;;;;;;;18.23;10.40;;;10.50;99.90;;;;;;5020388;28;20034;-62
2021/10/19 02:46:57;;;;;;;;;;;10.50;99.90;;;;;;5028147;28;20038;-61
2021/10/19 02:49:22;;;;;;;14.77;9.10;;;10.50;99.90;;;;;;5029340;28;19972;-62
2021/10/19 02:51:48;;;;;;;;;;;10.40;99.90;;;;;;5029719;28;20124;-62
2021/10/19 02:54:13;;;;;;;18.88;8.68;;;10.40;99.90;;;;;;5030045;28;19956;-62
2021/10/19 02:56:39;;;;;;;;;;;10.30;99.90;;;;;;5028518;28;20041;-62
2021/10/19 02:59:06;;;;;;;15.90;8.48;;;10.20;99.90;;;;;;5032936;28;19928;-62
2021/10/19 03:01:32;;;;;;;15.32;9.05;;;10.30;99.90;;;;;;5024093;28;20071;-61
2021/10/19 03:03:58;;;;;;;19.30;9.27;;;10.30;99.90;;;;;;5026441;28;20045;-62
2021/10/19 03:06:24;;;;;;;;;;;10.30;99.90;;;;;;5028237;28;20041;-62
2021/10/19 03:08:49;;;;;;;17.63;9.30;;;10.30;99.90;;;;;;5026292;28;19917;-63
2021/10/19 03:11:15;;;;;;;;;;;10.30;99.90;;;;;;5025543;28;20045;-62
2021/10/19 03:13:41;;;;;;;13.82;8.07;;;10.30;99.90;;;;;;5025814;28;20025;-61
2021/10/19 03:16:07;;;;;;;13.93;7.90;;;10.30;99.90;;;;;;5025232;28;20420;-62
2021/10/19 03:18:32;;;;;;;;;;;10.30;99.90;;;;;;5028693;28;20045;-62
2021/10/19 03:20:58;;;;;;;16.55;9.60;;;10.30;99.90;;;;;;5028949;28;19924;-61
2021/10/19 03:23:24;;;;;;;;;;;10.20;99.90;;;;;;5030072;28;20516;-62
2021/10/19 03:25:49;;;;;;;11.95;7.55;;;10.30;99.90;;;;;;5028281;28;20587;-62
2021/10/19 03:28:15;;;;;;;;;;;10.40;99.90;;;;;;5034908;28;20638;-62
2021/10/19 03:30:40;;;;;;;12.55;7.70;;;10.40;99.90;;;;;;5041510;28;19940;-62
2021/10/19 03:33:06;;;;;;;;;;;10.50;99.90;;;;;;5026347;28;20038;-62
2021/10/19 03:35:32;;;;;;;13.15;7.38;;;10.60;99.90;;;;;;5024696;28;20285;-63
2021/10/19 03:37:57;;;;;;;;;;;10.70;99.90;;;;;;5026509;28;20033;-63
2021/10/19 03:40:23;;;;;;;11.05;6.90;;;10.80;99.90;;;;;;5028765;28;19917;-61
2021/10/19 03:42:49;;;;;;;;;;;10.90;99.90;;;;;;5030150;28;20505;-63
2021/10/19 03:45:15;;;;;;;11.23;7.35;;;11.00;99.90;;;;;;5029188;28;20022;-63
2021/10/19 03:47:41;;;;;;;15.60;7.97;;;11.10;99.90;;;;;;5025890;28;20045;-64
2021/10/19 03:50:07;;;;;;;;;;;11.30;99.90;;;;;;5025948;28;20045;-63
2021/10/19 03:52:33;;;;;;;14.68;8.05;;;11.50;99.90;;;;;;5025609;28;19924;-63
2021/10/19 03:54:58;;;;;;;;;;;11.50;99.90;;;;;;5030255;28;20034;-63
2021/10/19 03:57:24;;;;;;;13.93;7.72;;;11.60;99.90;;;;;;5030805;28;19917;-63
2021/10/19 03:59:49;;;;;;;;;;;11.70;99.90;;;;;;5038521;28;20045;-59
2021/10/19 04:02:15;;;;;;;11.30;6.90;;;11.70;99.90;;;;;;5032348;28;19928;-62
2021/10/19 04:04:41;;;;;;;;;;;11.70;99.90;;;;;;5033225;28;20609;-63
2021/10/19 04:07:06;;;;;;;14.32;7.18;;;11.80;99.90;;;;;;5030945;28;19967;-62
2021/10/19 04:09:32;;;;;;;;;;;11.80;99.90;;;;;;5028157;28;20037;-62
2021/10/19 04:11:57;;;;;;;12.52;6.55;;;11.80;99.90;;;;;;5029644;28;19927;-61
2021/10/19 04:14:23;;;;;;;;;;;11.90;99.90;;;;;;5032204;28;20409;-62
2021/10/19 04:16:48;;;;;;;14.25;7.88;;;11.90;99.90;;;;;;5030330;28;20008;-62
2021/10/19 04:19:14;;;;;;;;;;;11.90;99.90;;;;;;5028452;28;20485;-62
2021/10/19 04:21:47;;;;;;;14.85;7.40;;;11.90;99.90;;;;;;5028494;28;19921;-62
2021/10/19 04:24:16;;;;;;;13.20;7.65;;;11.90;99.90;;;;;;5028984;28;20049;-62
2021/10/19 04:26:43;;;;;;;12.25;7.10;;;11.90;99.90;;;;;;5028651;28;20092;-62
2021/10/19 04:29:09;;;;;;;13.55;7.50;;;12.00;99.90;;;;;;5044457;28;20521;-63
2021/10/19 04:31:37;;;;;;;15.93;8.32;;;11.90;99.90;;;;;;5040936;28;20087;-63
2021/10/19 04:34:04;;;;;;;16.88;7.50;;;12.00;99.90;;;;;;5032690;28;20048;-63
2021/10/19 04:36:30;;;;;;;16.40;8.55;;;12.00;99.90;;;;;;5028942;28;20064;-63
2021/10/19 04:38:55;;;;;;;;;;;12.00;99.90;;;;;;5029253;28;20512;-63
2021/10/19 04:41:21;;;;;;;19.15;8.45;;;11.90;99.90;;;;;;5027399;28;19968;-63
2021/10/19 04:43:47;;;;;;;;;;;11.90;99.90;;;;;;5031643;28;20063;-64
2021/10/19 04:46:12;;;;;;;11.77;7.07;;;12.00;99.90;;;;;;5027417;28;19940;-65
2021/10/19 04:48:38;;;;;;;;;;;12.00;99.90;;;;;;5031301;28;20084;-65
2021/10/19 04:51:04;;;;;;;14.02;8.23;;;12.00;99.90;;;;;;5031368;28;19945;-62
2021/10/19 04:53:31;;;;;;;14.50;8.32;;;12.00;99.90;;;;;;5032363;28;20037;-63
2021/10/19 04:55:57;;;;;;;12.57;7.90;;;12.00;99.90;;;;;;5030592;28;20623;-63
2021/10/19 04:58:24;;;;;;;15.23;8.18;;;12.00;99.90;;;;;;5035656;28;20037;-63
2021/10/19 05:00:50;;;;;;;12.52;7.80;;;12.00;99.90;;;;;;5030801;28;20044;-64
2021/10/19 05:03:20;;;;;;;16.83;8.43;;;12.00;99.90;;;;;;5031527;28;20071;-64
2021/10/19 05:05:46;;;;;;;14.70;8.18;;;12.00;99.90;;;;;;5031138;28;20126;-64
2021/10/19 05:08:12;;;;;;;;;;;12.00;99.90;;;;;;5031113;28;20443;-64
2021/10/19 05:10:37;;;;;;;15.65;7.75;;;12.00;99.90;;;;;;5031521;28;20016;-64
2021/10/19 05:13:03;;;;;;;;;;;12.00;99.90;;;;;;5030512;28;20417;-63
2021/10/19 05:15:29;;;;;;;11.02;6.43;;;12.00;99.90;;;;;;5031141;28;20008;-63
2021/10/19 05:17:54;;;;;;;;;;;12.00;99.90;;;;;;5029253;28;20084;-62
2021/10/19 05:20:20;;;;;;;10.63;5.95;;;12.10;99.90;;;;;;5027894;28;19932;-63
2021/10/19 05:22:46;;;;;;;;;;;12.10;99.90;;;;;;5031776;28;20045;-64
2021/10/19 05:25:12;;;;;;;9.10;5.78;;;12.00;99.90;;;;;;5031405;28;20384;-63
2021/10/19 05:27:41;;;;;;;7.82;5.07;;;12.00;99.90;;;;;;5031786;28;20049;-63
2021/10/19 05:30:07;;;;;;;11.43;5.05;;;12.00;99.90;;;;;;5039956;28;20493;-63
2021/10/19 05:32:33;;;;;;;6.00;4.43;;;12.00;99.90;;;;;;5030617;28;20041;-63
2021/10/19 05:34:58;;;;;;;;;;;12.00;99.90;;;;;;5030894;28;20120;-63
2021/10/19 05:37:24;;;;;;;5.60;3.80;;;12.10;99.90;;;;;;5028256;28;19928;-63
2021/10/19 05:39:50;;;;;;;;;;;12.10;99.90;;;;;;5030662;28;20033;-63
2021/10/19 05:42:16;;;;;;;3.53;2.95;;;12.10;99.90;;;;;;5030615;28;19928;-64
2021/10/19 05:44:41;;;;;;;;;;;12.10;99.90;;;;;;5031653;28;20053;-63
2021/10/19 05:47:07;;;;;;;5.20;3.63;;;12.20;99.90;;;;;;5028765;28;19921;-63
2021/10/19 05:49:33;;;;;;;;;;;12.10;99.90;;;;;;5026709;28;20037;-63
2021/10/19 05:51:58;;;;;;;6.20;3.95;;;12.10;99.90;;;;;;5030038;28;20368;-63
2021/10/19 05:54:24;;;;;;;;;;;12.10;99.90;;;;;;5031489;28;20044;-63
2021/10/19 05:56:51;;;;;;;6.38;3.20;;;12.10;99.90;;;;;;5028366;28;19916;-63
2021/10/19 05:59:17;;;;;;;13.90;7.13;;;12.10;99.90;;;;;;5033691;28;20111;-63
2021/10/19 06:01:43;;;;;;;;;;;12.10;99.90;;;;;;5026599;28;20045;-66
2021/10/19 06:04:08;;;;;;;3.88;3.10;;;12.00;99.90;;;;;;5031494;28;19920;-65
2021/10/19 06:06:34;;;;;;;;;;;12.00;99.90;;;;;;5029264;28;20136;-65
2021/10/19 06:09:00;;;;;;;9.52;3.55;;;12.00;99.90;;;;;;5030473;28;19924;-65
2021/10/19 06:11:25;;;;;;;;;;;11.90;99.90;;;;;;5031785;28;20041;-64
2021/10/19 06:13:51;;;;;;;3.92;2.72;;;11.90;99.90;;;;;;5031635;28;20396;-64
2021/10/19 06:16:17;;;;;;;;;;;11.90;99.90;;;;;;5029863;28;20084;-64
2021/10/19 06:18:42;;;;;;;4.40;2.78;;;11.90;99.90;;;;;;5027633;28;19968;-64
2021/10/19 06:21:08;;;;;;;;;;;11.90;99.90;;;;;;5030014;28;20072;-65
2021/10/19 06:23:34;;;;;;;3.95;2.58;;;11.80;99.90;;;;;;5021706;28;20006;-64
2021/10/19 06:25:59;;;;;;;;;;;11.80;99.90;;;;;;5009862;28;20049;-65
2021/10/19 06:28:25;;;;;;;3.83;2.65;;;11.80;99.90;;;;;;5029116;28;20363;-64
2021/10/19 06:30:51;;;;;;;;;;;11.80;99.90;;;;;;5033461;28;20056;-64
2021/10/19 06:33:17;;;;;;;4.10;2.88;;;11.70;99.90;;;;;;5028959;28;19921;-65
2021/10/19 06:35:43;;;;;;;4.80;3.05;;;11.70;99.90;;;;;;5038774;28;20071;-65
2021/10/19 06:38:09;;;;;;;;;;;11.70;99.90;;;;;;5020988;28;20116;-65
2021/10/19 06:40:35;;;;;;;3.75;2.28;;;11.70;99.90;;;;;;5022171;28;19917;-64
2021/10/19 06:43:05;;;;;;;4.28;2.10;;;11.70;99.90;;;;;;5025320;28;20397;-64
2021/10/19 06:45:32;;;;;;;3.25;2.10;;;11.60;99.90;;;;;;5024764;28;20065;-65
2021/10/19 06:47:58;;;;;;;2.75;1.92;;;11.70;99.90;;;;;;5017430;28;20046;-64
2021/10/19 06:50:23;;;;;;;;;;;11.70;99.90;;;;;;5017617;28;20045;-64
2021/10/19 06:52:55;;;;;;;2.78;1.58;;;11.70;99.90;;;;;;5013056;28;20008;-63
2021/10/19 06:55:23;;;;;;;3.47;2.13;;;11.70;99.90;;;;;;5016400;28;20049;-64
2021/10/19 06:57:49;;;;;;;2.55;1.77;;;11.70;99.90;;;;;;5025192;28;20064;-64
2021/10/19 07:00:19;;;;;;;2.60;1.50;;;11.70;99.90;;;;;;5018930;28;20026;-63
2021/10/19 07:02:49;;;;;;;2.13;1.40;;;11.70;99.90;;;;;;5010516;28;20116;-64
2021/10/19 07:05:18;;;;;;;1.83;1.48;;;11.70;99.90;;;;;;5009823;28;20121;-62
2021/10/19 07:07:44;;;;;;;;;;;11.80;99.90;;;;;;5025338;28;20049;-64
2021/10/19 07:10:11;;;;;;;2.45;1.77;;;11.80;99.90;;;;;;5028889;28;20402;-69
2021/10/19 07:12:38;;;;;;;2.22;1.33;;;11.80;99.90;;;;;;5029742;28;20467;-65
2021/10/19 07:15:05;;;;;;;1.70;1.40;;;11.70;99.90;;;;;;5030367;28;20179;-66
2021/10/19 07:17:31;;;;;;;4.47;1.40;;;11.70;99.90;;;;;;5026267;28;20140;-66
2021/10/19 07:19:56;;;;;;;;;;;11.70;99.90;;;;;;5029242;28;20125;-65
2021/10/19 07:22:23;;;;;;;3.13;1.50;;;11.70;99.90;;;;;;5028223;28;20312;-64
2021/10/19 07:24:48;;;;;;;1.42;1.05;;;11.70;99.90;;;;;;5028870;28;20029;-65
2021/10/19 07:27:14;;;;;;;;;;;11.70;99.90;;;;;;5026272;28;20037;-64
2021/10/19 07:29:40;;;;;;;2.42;1.30;;;11.70;99.90;;;;;;5037863;28;19917;-65
2021/10/19 07:32:06;;;;;;;;;;;11.70;99.90;;;;;;5029914;28;20039;-65
2021/10/19 07:34:31;;;;;;;4.10;1.38;;;11.70;99.90;;;;;;5031274;28;20003;-65
2021/10/19 07:36:59;;;;;;;;;;;11.70;99.90;;;;;;5031033;28;20137;-65
2021/10/19 07:39:25;;;;;;;5.03;1.95;;;11.70;99.90;;;;;;5029882;28;19928;-66
2021/10/19 07:41:50;;;;;;;;;;;11.70;99.90;;;;;;5034271;28;20482;-65
2021/10/19 07:44:23;;;;;;;1.45;1.08;;;11.70;99.90;;;;;;5034132;28;19921;-65
2021/10/19 07:46:52;;;;;;;1.75;1.00;;;11.80;99.90;;;;;;5032559;28;20497;-65
2021/10/19 07:49:19;;;;;;;1.35;0.80;;;11.80;99.90;;;;;;5032169;28;20382;-65
2021/10/19 07:51:55;;;;;;;1.15;0.82;;;11.80;99.90;;;;;;5034753;28;20049;-65
2021/10/19 07:54:23;;;;;;;1.17;0.70;;;11.90;99.90;;;;;;5034662;28;20474;-66
2021/10/19 07:56:49;;;;;;;1.45;0.82;;;11.90;99.90;;;;;;5033968;28;20099;-65
2021/10/19 07:59:15;;;;;;;;;;;11.90;99.90;;;;;;5039733;28;20041;-66
2021/10/19 08:01:43;;;;;;;1.23;0.75;;;11.90;99.90;;;;;;5033402;28;19920;-66
2021/10/19 08:04:08;;;;;;;11.05;3.42;;;11.90;99.90;;;;;;5033677;28;20088;-65
2021/10/19 08:06:35;;;;;;;;;;;11.90;99.90;;;;;;5032742;28;20080;-64
2021/10/19 08:09:02;;;;;;;1.02;0.90;;;11.90;99.90;;;;;;5032478;28;19955;-64
2021/10/19 08:11:28;;;;;;;1.08;0.60;;;11.90;99.90;;;;;;5031328;28;20049;-65
2021/10/19 08:13:56;;;;;;;;;;;12.00;99.90;;;;;;5032935;28;20114;-64
2021/10/19 08:16:22;;;;;;;1.05;0.80;;;12.00;99.90;;;;;;5030665;28;19966;-65
2021/10/19 08:18:52;;;;;;;;;;;11.90;99.90;;;;;;5029365;28;20042;-65
2021/10/19 08:21:18;;;;;;;0.73;0.50;;;12.00;99.90;;;;;;5029292;28;19963;-64
2021/10/19 08:23:44;;;;;;;0.98;0.68;;;11.90;99.90;;;;;;5031323;28;20807;-64
2021/10/19 08:26:09;;;;;;;;;;;11.90;99.90;;;;;;5031736;28;20050;-65
2021/10/19 08:28:39;;;;;;;2.63;0.60;;;11.90;99.90;;;;;;5032020;28;19924;-65
2021/10/19 08:31:06;;;;;;;0.93;0.40;;;11.90;99.90;;;;;;5025334;28;20041;-63
2021/10/19 08:33:32;;;;;;;0.80;0.50;;;12.00;99.90;;;;;;5030235;28;20105;-65
2021/10/19 08:35:58;;;;;;;;;;;12.00;99.90;;;;;;5031131;28;20045;-66
2021/10/19 08:38:23;;;;;;;0.77;0.50;;;12.00;99.90;;;;;;5029062;28;19964;-64
2021/10/19 08:40:49;;;;;;;;;;;12.00;99.90;;;;;;5032280;28;20041;-65
2021/10/19 08:43:20;;;;;;;0.75;0.60;;;12.00;99.90;;;;;;5032278;28;20012;-64
2021/10/19 08:45:46;;;;;;;1.52;0.70;;;12.10;99.90;;;;;;5031265;28;20061;-64
2021/10/19 08:48:12;;;;;;;0.88;0.70;;;12.10;99.90;;;;;;5029187;28;20037;-66
2021/10/19 08:50:38;;;;;;;;;;;12.10;99.90;;;;;;5028170;28;20052;-65
2021/10/19 08:53:04;;;;;;;1.00;0.57;;;12.10;99.90;;;;;;5028874;28;20411;-65
2021/10/19 08:55:29;;;;;;;;;;;12.10;99.90;;;;;;5026585;28;20401;-64
2021/10/19 08:58:01;;;;;;;0.40;0.40;;;12.10;99.90;;;;;;5030620;28;19928;-65
2021/10/19 09:00:27;;;;;;;1.38;0.50;;;12.20;99.90;;;;;;5031497;28;20132;-65
2021/10/19 09:02:53;;;;;;;0.75;0.40;;;12.10;99.90;;;;;;5032419;28;20041;-65
2021/10/19 09:05:21;;;;;;;;;;;12.10;99.90;;;;;;5026657;28;20080;-64
2021/10/19 09:08:03;;;;;;;3.47;0.50;;;12.10;99.90;;;;;;5028624;28;20005;-64
2021/10/19 09:10:39;;;;;;;0.90;0.63;;;12.10;99.90;;;;;;5029602;28;20116;-65
2021/10/19 09:13:06;;;;;;;;;;;12.10;99.90;;;;;;5036547;28;20045;-64
2021/10/19 09:15:34;;;;;;;1.50;0.75;;;12.10;99.90;;;;;;5027007;28;19917;-65
2021/10/19 09:18:02;;;;;;;0.63;0.50;;;12.10;99.90;;;;;;5026895;28;20037;-65
2021/10/19 09:20:29;;;;;;;0.90;0.70;;;12.10;99.90;;;;;;5027643;28;20077;-65
2021/10/19 09:23:03;;;;;;;0.85;0.60;;;12.20;99.90;;;;;;5035298;28;20108;-65
2021/10/19 09:25:32;;;;;;;1.27;0.70;;;12.20;99.90;;;;;;5031307;28;20045;-65
2021/10/19 09:28:01;;;;;;;1.10;0.80;;;12.20;99.90;;;;;;5029491;28;20123;-65
2021/10/19 09:30:44;;;;;;;0.98;0.65;;;12.20;99.90;;;;;;5027701;28;20470;-65
2021/10/19 09:33:15;;;;;;;0.55;0.52;;;12.20;99.90;;;;;;5022133;28;20096;-66
2021/10/19 09:35:42;;;;;;;0.85;0.70;;;12.30;99.90;;;;;;5026907;28;20386;-64
2021/10/19 09:38:11;;;;;;;0.93;0.80;;;12.30;99.90;;;;;;5027552;28;20033;-65
2021/10/19 09:40:46;;;;;;;1.88;0.80;;;12.30;99.90;;;;;;5028145;28;20044;-65
2021/10/19 09:43:15;;;;;;;0.95;0.60;;;12.30;99.90;;;;;;5024870;28;20045;-65
2021/10/19 09:45:43;;;;;;;1.85;0.70;;;12.30;99.90;;;;;;5027180;28;20045;-65
2021/10/19 09:48:13;;;;;;;0.70;0.70;;;12.30;99.90;;;;;;5029666;28;20033;-64
2021/10/19 09:50:39;;;;;;;3.22;0.60;;;12.30;99.90;;;;;;5027394;28;20049;-65
2021/10/19 09:53:06;;;;;;;2.80;1.02;;;12.30;99.90;;;;;;5030399;28;20044;-65
2021/10/19 09:55:32;;;;;;;1.38;0.70;;;12.40;99.90;;;;;;5029877;28;20409;-65
2021/10/19 09:57:58;;;;;;;0.75;0.60;;;12.40;99.90;;;;;;5027073;28;20065;-65
2021/10/19 10:00:24;;;;;;;;;;;12.40;99.90;;;;;;5029624;28;20148;-64
2021/10/19 10:02:50;;;;;;;0.57;0.53;;;12.40;99.90;;;;;;5029425;28;19921;-64
2021/10/19 10:05:16;;;;;;;;;;;12.50;99.90;;;;;;5031105;28;20037;-64
2021/10/19 10:07:45;;;;;;;0.60;0.60;;;12.50;99.90;;;;;;5027763;28;19921;-64
2021/10/19 10:10:14;;;;;;;1.90;0.93;;;12.60;99.90;;;;;;5029709;28;20520;-64
2021/10/19 10:12:39;;;;;;;0.50;0.50;;;12.70;99.90;;;;;;5030249;28;20037;-65
2021/10/19 10:15:05;;;;;;;;;;;12.70;99.90;;;;;;5034252;28;20393;-64
2021/10/19 10:17:31;;;;;;;0.70;0.60;;;12.70;99.90;;;;;;5032178;28;20381;-64
2021/10/19 10:20:07;;;;;;;;;;;12.80;99.90;;;;;;5029762;28;20041;-64
2021/10/19 10:22:41;;;;;;;0.88;0.60;;;12.80;99.90;;;;;;5029066;28;20323;-64
2021/10/19 10:25:09;;;;;;;2.05;1.00;;;12.90;99.90;;;;;;5025321;28;20148;-64
2021/10/19 10:27:36;;;;;;;2.70;0.50;;;12.90;99.90;;;;;;5026984;28;20048;-65
2021/10/19 10:30:03;;;;;;;0.43;0.40;;;12.90;99.90;;;;;;5026277;28;20045;-64
2021/10/19 10:32:35;;;;;;;0.35;0.32;;;13.00;99.90;;;;;;5029176;28;20460;-65
2021/10/19 10:35:06;;;;;;;0.77;0.50;;;13.00;99.90;;;;;;5026489;28;20041;-64
2021/10/19 10:37:38;;;;;;;0.40;0.40;;;13.10;99.90;;;;;;5027637;28;20045;-64
2021/10/19 10:40:07;;;;;;;0.70;0.50;;;13.10;99.90;;;;;;5029105;28;20504;-64
2021/10/19 10:42:38;;;;;;;3.70;0.70;;;13.10;99.90;;;;;;5029555;28;20045;-65
2021/10/19 10:45:30;;;;;;;0.82;0.52;;;13.10;99.90;;;;;;5029094;28;20029;-62
2021/10/19 10:47:59;;;;;;;0.75;0.52;;;13.20;99.90;;;;;;5029977;28;20092;-63
2021/10/19 10:50:25;;;;;;;2.67;1.30;;;13.20;99.90;;;;;;5039191;28;20037;-65
2021/10/19 10:52:59;;;;;;;0.50;0.40;;;13.20;99.90;;;;;;5042195;28;20044;-65
2021/10/19 10:55:25;;;;;;;1.15;0.50;;;13.20;99.90;;;;;;5033614;28;20045;-65
2021/10/19 10:57:50;;;;;;;;;;;13.20;99.90;;;;;;5046794;28;20147;-65
2021/10/19 11:00:24;;;;;;;0.60;0.50;;;13.30;99.90;;;;;;5042626;28;20026;-65
2021/10/19 11:02:50;;;;;;;0.50;0.40;;;13.20;99.90;;;;;;5045974;28;20112;-64
2021/10/19 11:05:15;;;;;;;;;;;13.20;99.90;;;;;;5047639;28;20108;-62
2021/10/19 11:07:57;;;;;;;0.93;0.40;;;13.30;99.90;;;;;;5049126;28;19969;-65
2021/10/19 11:10:23;;;;;;;0.68;0.40;;;13.20;99.90;;;;;;5035182;28;20041;-65
2021/10/19 11:12:57;;;;;;;;;;;13.30;99.90;;;;;;5038318;28;20059;-65
2021/10/19 11:15:23;;;;;;;0.68;0.47;;;13.30;99.90;;;;;;5042862;28;19967;-65
2021/10/19 11:17:50;;;;;;;;;;;13.30;99.90;;;;;;5040503;28;20087;-65
2021/10/19 11:20:17;;;;;;;3.75;1.80;;;13.30;99.90;;;;;;5038788;28;20011;-65
2021/10/19 11:22:43;;;;;;;1.13;0.50;;;13.30;99.90;;;;;;5044116;28;20038;-64
2021/10/19 11:25:10;;;;;;;0.55;0.50;;;13.30;99.90;;;;;;5043309;28;20044;-65
2021/10/19 11:27:36;;;;;;;;;;;13.40;99.90;;;;;;5038902;28;20041;-64
2021/10/19 11:30:03;;;;;;;1.08;0.50;;;13.40;99.90;;;;;;5047148;28;19986;-64
2021/10/19 11:32:29;;;;;;;1.30;0.80;;;13.40;99.90;;;;;;5037967;28;20050;-64
2021/10/19 11:34:55;;;;;;;1.27;0.50;;;13.40;99.90;;;;;;5029220;28;20095;-63
2021/10/19 11:37:20;;;;;;;;;;;13.40;99.90;;;;;;5025648;28;20132;-65
2021/10/19 11:39:46;;;;;;;1.75;0.60;;;13.40;99.90;;;;;;5024151;28;19932;-62
2021/10/19 11:42:12;;;;;;;;;;;13.40;99.90;;;;;;5028489;28;20494;-63
2021/10/19 11:44:38;;;;;;;0.65;0.50;;;13.40;99.90;;;;;;5028630;28;19917;-63
2021/10/19 11:47:05;;;;;;;1.27;0.70;;;13.40;99.90;;;;;;5012228;28;20525;-70
2021/10/19 11:49:32;;;;;;;2.47;0.60;;;13.40;99.90;;;;;;5011160;28;20033;-63
2021/10/19 11:51:58;;;;;;;0.63;0.60;;;13.40;99.90;;;;;;5028896;28;20045;-64
2021/10/19 11:54:25;;;;;;;1.15;0.80;;;13.40;99.90;;;;;;5028652;28;20091;-67
2021/10/19 11:56:57;;;;;;;0.68;0.60;;;13.40;99.90;;;;;;5027996;28;20041;-65
2021/10/19 11:59:23;;;;;;;4.50;0.55;;;13.50;99.90;;;;;;5032939;28;20052;-64
2021/10/19 12:01:49;;;;;;;;;;;13.50;99.90;;;;;;5028296;28;20037;-64
2021/10/19 12:04:15;;;;;;;0.60;0.60;;;13.50;99.90;;;;;;5028810;28;19928;-64
2021/10/19 12:06:43;;;;;;;;;;;13.50;99.90;;;;;;5026832;28;20038;-63
2021/10/19 12:09:21;;;;;;;0.70;0.60;;;13.60;99.90;;;;;;5025018;28;20361;-62
2021/10/19 12:11:54;;;;;;;0.98;0.73;;;13.70;99.90;;;;;;5024977;28;20731;-63
2021/10/19 12:14:27;;;;;;;3.25;0.93;;;13.70;99.90;;;;;;5024542;28;20088;-64
2021/10/19 12:16:55;;;;;;;0.68;0.60;;;13.80;99.90;;;;;;5029825;28;20037;-64
2021/10/19 12:19:21;;;;;;;2.60;0.60;;;13.90;99.90;;;;;;5028103;28;20042;-63
2021/10/19 12:21:53;;;;;;;1.15;0.70;;;13.90;99.90;;;;;;5032401;28;20065;-64
2021/10/19 12:24:19;;;;;;;1.25;0.77;;;14.00;99.90;;;;;;5030412;28;20041;-63
2021/10/19 12:26:45;;;;;;;;;;;14.00;99.90;;;;;;5029818;28;20041;-63
2021/10/19 12:29:13;;;;;;;2.88;0.63;;;14.00;99.90;;;;;;5036416;28;19916;-64
2021/10/19 12:31:44;;;;;;;2.38;0.50;;;14.10;99.90;;;;;;5039195;28;20511;-63
2021/10/19 12:34:11;;;;;;;1.23;0.63;;;14.10;99.90;;;;;;5030881;28;20037;-63
2021/10/19 12:36:39;;;;;;;0.93;0.40;;;14.20;99.90;;;;;;5030881;28;20503;-62
2021/10/19 12:39:13;;;;;;;0.50;0.50;;;14.20;99.90;;;;;;5030787;28;20045;-63
2021/10/19 12:41:40;;;;;;;4.32;0.47;;;14.20;99.90;;;;;;5031631;28;20065;-63
2021/10/19 12:44:11;;;;;;;0.60;0.50;;;14.30;99.90;;;;;;5031676;28;20041;-63
2021/10/19 12:46:37;;;;;;;12.05;8.55;;;14.30;99.90;;;;;;5030690;28;20103;-63
2021/10/19 12:49:05;;;;;;;;;;;14.40;99.90;;;;;;5029730;28;20038;-61
2021/10/19 12:51:30;;;;;;;0.57;0.50;;;14.40;99.90;;;;;;5030828;28;19917;-63
2021/10/19 12:53:56;;;;;;;;;;;14.40;99.90;;;;;;5032064;28;20037;-63
2021/10/19 12:56:24;;;;;;;0.68;0.30;;;14.40;99.90;;;;;;5030980;28;20678;-63
2021/10/19 12:58:50;;;;;;;2.45;0.55;;;14.40;99.90;;;;;;5042914;28;20029;-63
2021/10/19 13:01:16;;;;;;;0.20;0.20;;;14.40;99.90;;;;;;5042425;28;20080;-62
2021/10/19 13:03:42;;;;;;;;;;;14.40;99.90;;;;;;5031794;28;20073;-63
2021/10/19 13:06:09;;;;;;;0.32;0.32;;;14.40;99.90;;;;;;5029822;28;19928;-63